createdAt,value
2022-11-04T00:01:31.507Z,2.20
2022-11-04T00:04:41.185Z,2.10
2022-11-04T00:08:06.815Z,1.60
2022-11-04T00:11:32.665Z,2.23
2022-11-04T00:14:41.017Z,2.70
2022-11-04T00:17:48.307Z,2.07
2022-11-04T00:21:16.717Z,1.97
2022-11-04T00:24:42.144Z,2.67
2022-11-04T00:28:08.303Z,3.77
2022-11-04T00:31:34.079Z,2.90
2022-11-04T00:34:42.382Z,3.10
2022-11-04T00:37:52.104Z,2.60
2022-11-04T00:41:00.391Z,3.33
2022-11-04T00:44:08.716Z,3.17
2022-11-04T00:47:17.234Z,3.13
2022-11-04T00:50:25.473Z,2.80
2022-11-04T00:53:35.362Z,3.27
2022-11-04T00:56:43.641Z,3.47
2022-11-04T00:59:51.994Z,3.27
2022-11-04T01:03:01.022Z,3.37
2022-11-04T01:06:09.513Z,4.63
2022-11-04T01:09:19.363Z,1.87
2022-11-04T01:12:27.711Z,2.07
2022-11-04T01:15:37.471Z,2.77
2022-11-04T01:18:46.135Z,2.07
2022-11-04T01:21:54.469Z,2.93
2022-11-04T01:25:04.244Z,3.57
2022-11-04T01:28:12.600Z,2.27
2022-11-04T01:31:22.832Z,2.60
2022-11-04T01:34:31.165Z,3.03
2022-11-04T01:37:39.489Z,2.93
2022-11-04T01:40:49.134Z,5.13
2022-11-04T01:43:58.890Z,3.20
2022-11-04T01:47:07.429Z,4.07
2022-11-04T01:50:19.365Z,2.30
2022-11-04T01:53:31.429Z,3.90
2022-11-04T01:56:43.207Z,3.90
2022-11-04T01:59:51.890Z,2.97
2022-11-04T02:03:03.043Z,2.70
2022-11-04T02:06:12.133Z,2.30
2022-11-04T02:09:22.608Z,3.50
2022-11-04T02:12:50.682Z,5.80
2022-11-04T02:16:07.854Z,4.60
2022-11-04T02:19:37.569Z,3.67
2022-11-04T02:23:08.794Z,2.40
2022-11-04T02:26:47.865Z,2.97
2022-11-04T02:30:09.126Z,3.20
2022-11-04T02:33:22.965Z,3.43
2022-11-04T02:36:40.852Z,3.40
2022-11-04T02:39:54.710Z,3.40
2022-11-04T02:43:07.851Z,3.97
2022-11-04T02:46:23.355Z,4.10
2022-11-04T02:49:37.103Z,7.00
2022-11-04T02:52:51.511Z,3.27
2022-11-04T02:56:01.600Z,3.93
2022-11-04T02:59:15.188Z,5.07
2022-11-04T03:02:30.529Z,6.73
2022-11-04T03:05:41.581Z,6.93
2022-11-04T03:08:53.236Z,4.03
2022-11-04T03:12:05.560Z,2.70
2022-11-04T03:15:20.335Z,3.87
2022-11-04T03:18:37.556Z,3.53
2022-11-04T03:21:54.403Z,3.83
2022-11-04T03:25:03.438Z,5.10
2022-11-04T03:28:27.058Z,3.57
2022-11-04T03:31:43.499Z,2.77
2022-11-04T03:34:53.540Z,3.37
2022-11-04T03:38:01.926Z,3.20
2022-11-04T03:41:16.913Z,4.10
2022-11-04T03:44:25.911Z,3.40
2022-11-04T03:47:34.722Z,3.20
2022-11-04T03:50:47.660Z,2.90
2022-11-04T03:53:56.698Z,3.53
2022-11-04T03:57:35.805Z,4.40
2022-11-04T04:00:50.752Z,4.10
2022-11-04T04:04:02.727Z,4.43
2022-11-04T04:07:17.916Z,4.43
2022-11-04T04:10:40.994Z,5.57
2022-11-04T04:13:56.050Z,3.53
2022-11-04T04:17:06.903Z,3.33
2022-11-04T04:20:18.437Z,4.30
2022-11-04T04:23:49.684Z,4.33
2022-11-04T04:27:16.461Z,5.67
2022-11-04T04:30:25.013Z,4.43
2022-11-04T04:33:33.371Z,3.33
2022-11-04T04:36:47.320Z,4.33
2022-11-04T04:40:20.872Z,4.57
2022-11-04T04:43:50.504Z,3.37
2022-11-04T04:47:00.004Z,6.80
2022-11-04T04:50:09.474Z,6.23
2022-11-04T04:53:17.874Z,4.47
2022-11-04T04:56:27.521Z,2.93
2022-11-04T04:59:35.797Z,4.00
2022-11-04T05:02:44.313Z,4.63
2022-11-04T05:05:54.944Z,5.97
2022-11-04T05:09:06.296Z,4.17
2022-11-04T05:12:16.042Z,3.30
2022-11-04T05:15:24.419Z,4.40
2022-11-04T05:18:32.703Z,3.83
2022-11-04T05:21:41.009Z,3.63
2022-11-04T05:24:49.286Z,4.87
2022-11-04T05:28:02.918Z,6.37
2022-11-04T05:31:11.212Z,3.23
2022-11-04T05:34:19.485Z,5.17
2022-11-04T05:37:27.789Z,3.53
2022-11-04T05:40:36.095Z,3.33
2022-11-04T05:43:45.848Z,4.43
2022-11-04T05:46:54.199Z,4.03
2022-11-04T05:50:02.556Z,3.07
2022-11-04T05:53:11.142Z,3.53
2022-11-04T05:56:19.743Z,2.73
2022-11-04T05:59:29.464Z,3.27
2022-11-04T06:02:37.774Z,6.30
2022-11-04T06:05:46.096Z,5.03
2022-11-04T06:08:54.679Z,6.03
2022-11-04T06:12:03.013Z,6.73
2022-11-04T06:15:13.028Z,4.50
2022-11-04T06:18:21.341Z,3.23
2022-11-04T06:21:31.400Z,4.30
2022-11-04T06:24:39.817Z,3.43
2022-11-04T06:27:48.673Z,3.70
2022-11-04T06:31:00.161Z,3.83
2022-11-04T06:34:08.503Z,3.23
2022-11-04T06:37:16.830Z,4.73
2022-11-04T06:40:25.454Z,4.13
2022-11-04T06:43:33.770Z,5.03
2022-11-04T06:46:44.956Z,4.37
2022-11-04T06:49:53.278Z,4.73
2022-11-04T06:53:01.583Z,4.53
2022-11-04T06:56:11.318Z,4.67
2022-11-04T06:59:21.833Z,5.27
2022-11-04T07:02:31.534Z,6.53
2022-11-04T07:05:39.869Z,4.87
2022-11-04T07:08:48.621Z,3.23
2022-11-04T07:11:56.902Z,4.93
2022-11-04T07:15:05.734Z,5.40
2022-11-04T07:18:15.524Z,3.60
2022-11-04T07:21:23.962Z,3.57
2022-11-04T07:24:33.167Z,3.80
2022-11-04T07:27:41.456Z,4.47
2022-11-04T07:30:49.852Z,4.40
2022-11-04T07:33:59.971Z,5.80
2022-11-04T07:37:08.253Z,4.33
2022-11-04T07:40:16.674Z,7.80
2022-11-04T07:43:24.959Z,5.47
2022-11-04T07:46:34.472Z,5.63
2022-11-04T07:49:44.600Z,4.97
2022-11-04T07:52:53.054Z,5.63
2022-11-04T07:56:05.951Z,6.73
2022-11-04T07:59:14.367Z,5.67
2022-11-04T08:02:26.751Z,8.10
2022-11-04T08:05:39.580Z,5.43
2022-11-04T08:08:48.453Z,5.50
2022-11-04T08:11:56.766Z,4.07
2022-11-04T08:15:06.415Z,4.77
2022-11-04T08:18:14.747Z,4.30
2022-11-04T08:21:24.509Z,5.67
2022-11-04T08:24:32.809Z,5.47
2022-11-04T08:27:41.238Z,5.10
2022-11-04T08:30:57.232Z,6.20
2022-11-04T08:34:06.261Z,5.77
2022-11-04T08:37:17.062Z,5.83
2022-11-04T08:40:25.854Z,7.10
2022-11-04T08:43:35.083Z,4.87
2022-11-04T08:46:45.468Z,4.10
2022-11-04T08:49:53.767Z,4.50
2022-11-04T08:53:04.238Z,4.63
2022-11-04T08:56:14.960Z,5.80
2022-11-04T08:59:25.046Z,4.20
2022-11-04T09:02:33.384Z,5.30
2022-11-04T09:05:45.103Z,5.37
2022-11-04T09:08:57.373Z,4.57
2022-11-04T09:12:05.983Z,6.53
2022-11-04T09:15:14.341Z,4.37
2022-11-04T09:18:22.698Z,5.63
2022-11-04T09:21:31.341Z,4.93
2022-11-04T09:24:41.026Z,6.50
2022-11-04T09:27:49.363Z,5.13
2022-11-04T09:30:57.723Z,4.93
2022-11-04T09:34:06.027Z,6.03
2022-11-04T09:37:15.796Z,5.20
2022-11-04T09:40:26.722Z,5.17
2022-11-04T09:43:47.373Z,5.03
2022-11-04T09:46:59.741Z,4.63
2022-11-04T09:50:11.478Z,5.20
2022-11-04T09:53:24.171Z,4.70
2022-11-04T09:56:36.933Z,4.50
2022-11-04T09:59:45.455Z,7.17
2022-11-04T10:03:03.031Z,4.73
2022-11-04T10:06:27.710Z,5.93
2022-11-04T10:09:48.073Z,4.53
2022-11-04T10:13:12.044Z,5.53
2022-11-04T10:16:29.132Z,4.83
2022-11-04T10:19:47.970Z,5.37
2022-11-04T10:22:59.506Z,6.73
2022-11-04T10:26:16.094Z,4.50
2022-11-04T10:29:30.402Z,5.73
2022-11-04T10:32:43.884Z,4.63
2022-11-04T10:35:57.265Z,4.37
2022-11-04T10:39:13.746Z,5.97
2022-11-04T10:42:23.145Z,6.33
2022-11-04T10:45:40.192Z,4.07
2022-11-04T10:48:52.061Z,4.13
2022-11-04T10:52:01.045Z,4.30
2022-11-04T10:55:20.006Z,8.20
2022-11-04T10:58:32.332Z,4.53
2022-11-04T11:01:50.640Z,4.83
2022-11-04T11:05:14.936Z,5.00
2022-11-04T11:08:30.230Z,4.40
2022-11-04T11:11:47.335Z,5.90
2022-11-04T11:14:55.717Z,5.20
2022-11-04T11:18:21.236Z,4.57
2022-11-04T11:21:44.481Z,4.57
2022-11-04T11:24:52.730Z,5.70
2022-11-04T11:28:02.888Z,4.70
2022-11-04T11:31:23.367Z,5.43
2022-11-04T11:34:38.485Z,5.67
2022-11-04T11:37:48.518Z,6.50
2022-11-04T11:41:25.584Z,6.13
2022-11-04T11:44:38.780Z,7.07
2022-11-04T11:47:47.893Z,7.27
2022-11-04T11:51:00.335Z,4.90
2022-11-04T11:54:23.816Z,5.07
2022-11-04T11:57:43.174Z,5.53
2022-11-04T12:01:03.178Z,7.23
2022-11-04T12:11:29.039Z,5.63
2022-11-04T12:14:57.286Z,5.90
2022-11-04T12:18:38.709Z,7.40
2022-11-04T12:21:50.725Z,7.47
2022-11-04T12:25:10.053Z,6.37
2022-11-04T12:28:27.646Z,6.53
2022-11-04T12:31:47.869Z,8.60
2022-11-04T12:35:09.049Z,7.30
2022-11-04T12:38:46.004Z,6.50
2022-11-04T12:42:23.086Z,7.23
2022-11-04T12:45:46.611Z,6.77
2022-11-04T12:49:18.674Z,6.73
2022-11-04T12:52:43.297Z,9.77
2022-11-04T12:55:58.326Z,9.20
2022-11-04T12:59:36.090Z,10.50
2022-11-04T13:02:50.197Z,6.67
2022-11-04T13:06:02.732Z,6.23
2022-11-04T13:09:16.164Z,7.50
2022-11-04T13:12:28.120Z,7.60
2022-11-04T13:15:46.182Z,6.73
2022-11-04T13:18:54.698Z,9.33
2022-11-04T13:22:06.941Z,7.33
2022-11-04T13:25:18.383Z,7.23
2022-11-04T13:28:27.200Z,9.20
2022-11-04T13:31:48.299Z,7.33
2022-11-04T13:35:02.876Z,6.80
2022-11-04T13:38:14.343Z,6.30
2022-11-04T13:41:47.656Z,9.07
2022-11-04T13:44:58.541Z,6.97
2022-11-04T13:48:12.681Z,6.83
2022-11-04T13:51:21.092Z,6.63
2022-11-04T13:54:32.496Z,6.90
2022-11-04T13:57:53.017Z,6.83
2022-11-04T14:01:12.104Z,8.17
2022-11-04T14:04:29.106Z,8.77
2022-11-04T14:08:08.736Z,7.57
2022-11-04T14:11:17.080Z,8.17
2022-11-04T14:14:25.469Z,6.70
2022-11-04T14:18:02.175Z,7.40
2022-11-04T14:21:13.913Z,9.03
2022-11-04T14:24:23.329Z,8.23
2022-11-04T14:27:41.749Z,8.37
2022-11-04T14:30:52.081Z,10.13
2022-11-04T14:34:01.196Z,12.30
2022-11-04T14:37:23.128Z,7.70
2022-11-04T14:40:48.218Z,7.33
2022-11-04T14:43:59.436Z,7.17
2022-11-04T14:47:20.235Z,7.67
2022-11-04T14:50:29.752Z,9.00
2022-11-04T14:53:39.828Z,7.17
2022-11-04T14:56:48.253Z,7.57
2022-11-04T14:59:56.847Z,9.10
2022-11-04T15:06:59.221Z,6.83
2022-11-04T15:10:24.682Z,6.87
2022-11-04T15:13:37.821Z,5.80
2022-11-04T15:16:49.417Z,7.03
2022-11-04T15:20:00.695Z,6.33
2022-11-04T15:23:15.468Z,8.30
2022-11-04T15:26:30.075Z,6.10
2022-11-04T15:29:38.932Z,7.13
2022-11-04T15:32:58.595Z,5.67
2022-11-04T15:36:09.962Z,7.10
2022-11-04T15:39:22.518Z,6.83
2022-11-04T15:42:40.487Z,5.50
2022-11-04T15:45:55.817Z,5.17
2022-11-04T15:49:06.423Z,6.33
2022-11-04T15:52:18.191Z,5.07
2022-11-04T15:55:28.649Z,7.57
2022-11-04T15:58:38.426Z,5.33
2022-11-04T16:01:49.607Z,5.53
2022-11-04T16:05:06.774Z,5.03
2022-11-04T16:08:21.082Z,5.10
2022-11-04T16:11:30.723Z,5.50
2022-11-04T16:14:40.502Z,5.50
2022-11-04T16:17:48.853Z,5.10
2022-11-04T16:20:58.029Z,5.60
2022-11-04T16:24:09.292Z,4.43
2022-11-04T16:27:21.270Z,5.93
2022-11-04T16:30:31.490Z,5.60
2022-11-04T16:33:39.885Z,4.20
2022-11-04T16:36:48.207Z,4.40
2022-11-04T16:39:56.504Z,5.33
2022-11-04T16:43:04.982Z,4.70
2022-11-04T16:46:14.655Z,4.70
2022-11-04T16:49:23.288Z,4.77
2022-11-04T16:52:32.325Z,3.97
2022-11-04T16:55:42.068Z,4.50
2022-11-04T16:58:50.394Z,4.90
2022-11-04T17:02:00.525Z,5.07
2022-11-04T17:05:10.550Z,4.60
2022-11-04T17:08:18.913Z,6.03
2022-11-04T17:11:27.350Z,5.57
2022-11-04T17:14:36.174Z,4.03
2022-11-04T17:17:46.083Z,5.67
2022-11-04T17:20:57.167Z,3.73
2022-11-04T17:24:06.001Z,7.20
2022-11-04T17:27:14.498Z,4.53
2022-11-04T17:30:24.229Z,5.27
2022-11-04T17:33:34.084Z,5.27
2022-11-04T17:36:42.624Z,3.83
2022-11-04T17:39:50.924Z,4.20
2022-11-04T17:43:16.615Z,3.53
2022-11-04T17:46:38.162Z,3.70
2022-11-04T17:49:47.993Z,3.83
2022-11-04T17:52:56.292Z,4.50
2022-11-04T17:56:04.710Z,3.57
2022-11-04T17:59:14.334Z,3.70
2022-11-04T18:02:22.812Z,3.33
2022-11-04T18:05:32.595Z,6.00
2022-11-04T18:08:41.122Z,4.40
2022-11-04T18:12:06.883Z,3.80
2022-11-04T18:15:17.225Z,3.87
2022-11-04T18:18:25.784Z,4.30
2022-11-04T18:21:35.593Z,4.53
2022-11-04T18:24:44.037Z,3.43
2022-11-04T18:27:52.385Z,6.50
2022-11-04T18:31:00.741Z,4.63
2022-11-04T18:34:12.419Z,4.37
2022-11-04T18:37:23.238Z,6.00
2022-11-04T18:40:31.793Z,4.40
2022-11-04T18:43:40.513Z,3.60
2022-11-04T18:46:49.715Z,3.37
2022-11-04T18:49:58.046Z,4.77
2022-11-04T18:53:07.947Z,3.30
2022-11-04T18:56:18.592Z,3.27
2022-11-04T18:59:26.953Z,4.03
2022-11-04T19:02:35.436Z,3.70
2022-11-04T19:05:44.066Z,1.57
2022-11-04T19:08:54.015Z,1.03
2022-11-04T19:12:19.647Z,2.13
2022-11-04T19:15:28.482Z,2.33
2022-11-04T19:18:37.218Z,4.10
2022-11-04T19:21:47.343Z,1.90
2022-11-04T19:24:57.080Z,1.60
2022-11-04T19:28:32.591Z,2.67
2022-11-04T19:31:34.817Z,2.83
2022-11-04T19:34:43.384Z,5.03
2022-11-04T19:37:51.814Z,3.37
2022-11-04T19:41:07.162Z,4.77
2022-11-04T19:44:18.434Z,3.03
2022-11-04T19:47:26.761Z,2.77
2022-11-04T19:50:35.178Z,5.50
2022-11-04T19:53:43.596Z,2.20
2022-11-04T19:56:53.754Z,3.50
2022-11-04T20:00:02.045Z,2.80
2022-11-04T20:03:19.823Z,3.67
2022-11-04T20:06:28.351Z,2.97
2022-11-04T20:09:36.923Z,3.83
2022-11-04T20:13:03.802Z,1.20
2022-11-04T20:16:21.365Z,3.70
2022-11-04T20:19:29.701Z,2.33
2022-11-04T20:22:38.059Z,1.77
2022-11-04T20:25:46.893Z,2.23
2022-11-04T20:28:58.357Z,1.17
2022-11-04T20:32:07.045Z,2.57
2022-11-04T20:35:15.449Z,2.37
2022-11-04T20:38:23.791Z,1.53
2022-11-04T20:41:32.548Z,2.07
2022-11-04T20:44:42.357Z,1.53
2022-11-04T20:47:50.607Z,2.23
2022-11-04T20:50:59.204Z,1.20
2022-11-04T20:54:08.000Z,1.87
2022-11-04T20:57:16.928Z,2.50
2022-11-04T21:00:26.912Z,2.20
2022-11-04T21:03:35.539Z,0.60
2022-11-04T21:06:44.179Z,2.90
2022-11-04T21:09:52.485Z,1.67
2022-11-04T21:13:00.801Z,3.53
2022-11-04T21:16:11.814Z,1.87
2022-11-04T21:19:22.004Z,4.40
2022-11-04T21:22:31.784Z,2.23
2022-11-04T21:25:41.393Z,0.70
2022-11-04T21:28:53.824Z,1.53
2022-11-04T21:32:03.572Z,3.47
2022-11-04T21:35:11.962Z,2.93
2022-11-04T21:38:20.297Z,1.43
2022-11-04T21:41:33.243Z,1.83
2022-11-04T21:44:41.554Z,1.03
2022-11-04T21:47:51.298Z,1.73
2022-11-04T21:51:02.837Z,1.37
2022-11-04T21:54:11.939Z,2.70
2022-11-04T21:57:20.317Z,0.70
2022-11-04T22:00:28.614Z,1.70
2022-11-04T22:03:38.358Z,0.97
2022-11-04T22:06:47.183Z,1.97
2022-11-04T22:09:55.439Z,0.97
2022-11-04T22:13:03.724Z,2.70
2022-11-04T22:16:13.001Z,2.10
2022-11-04T22:19:22.693Z,1.03
2022-11-04T22:22:31.006Z,1.93
2022-11-04T22:25:39.469Z,1.67
2022-11-04T22:28:48.109Z,2.20
2022-11-04T22:31:56.384Z,3.33
2022-11-04T22:35:07.200Z,1.23
2022-11-04T22:38:15.560Z,1.53
2022-11-04T22:41:25.728Z,1.57
2022-11-04T22:44:34.324Z,2.40
2022-11-04T22:47:42.648Z,0.80
2022-11-04T22:50:57.969Z,1.63
2022-11-04T22:54:08.472Z,2.30
2022-11-04T22:57:17.063Z,0.60
2022-11-04T23:00:25.422Z,1.60
2022-11-04T23:03:34.131Z,1.40
2022-11-04T23:06:43.861Z,1.00
2022-11-04T23:10:09.589Z,2.97
2022-11-04T23:13:35.728Z,2.50
2022-11-04T23:17:04.027Z,1.87
2022-11-04T23:20:14.813Z,3.03
2022-11-04T23:23:44.116Z,2.17
2022-11-04T23:26:52.670Z,2.60
2022-11-04T23:30:30.040Z,2.73
2022-11-04T23:34:04.342Z,2.77
2022-11-04T23:37:13.090Z,2.10
2022-11-04T23:40:22.770Z,2.00
2022-11-04T23:43:31.062Z,3.20
2022-11-04T23:46:56.907Z,3.50
2022-11-04T23:50:22.881Z,1.53
2022-11-04T23:53:48.592Z,0.47
2022-11-04T23:57:15.729Z,2.20
